sensor_id;sensor_type;location;lat;lon;timestamp;P1;durP1;ratioP1;P2;durP2;ratioP2
76935;SDS011;65881;52.438;16.744;2024-03-29T00:01:22;3.78;;;2.45;;
76935;SDS011;65881;52.438;16.744;2024-03-29T00:03:49;4.35;;;2.88;;
76935;SDS011;65881;52.438;16.744;2024-03-29T00:06:15;6.68;;;2.80;;
76935;SDS011;65881;52.438;16.744;2024-03-29T00:08:40;3.78;;;2.75;;
76935;SDS011;65881;52.438;16.744;2024-03-29T00:11:06;4.38;;;2.75;;
76935;SDS011;65881;52.438;16.744;2024-03-29T00:13:32;5.97;;;3.08;;
76935;SDS011;65881;52.438;16.744;2024-03-29T00:15:58;4.95;;;3.22;;
76935;SDS011;65881;52.438;16.744;2024-03-29T00:18:23;6.72;;;2.75;;
76935;SDS011;65881;52.438;16.744;2024-03-29T00:20:49;3.83;;;2.55;;
76935;SDS011;65881;52.438;16.744;2024-03-29T00:23:15;4.00;;;2.55;;
76935;SDS011;65881;52.438;16.744;2024-03-29T00:25:40;5.90;;;2.58;;
76935;SDS011;65881;52.438;16.744;2024-03-29T00:28:06;4.63;;;2.65;;
76935;SDS011;65881;52.438;16.744;2024-03-29T00:30:32;4.28;;;3.20;;
76935;SDS011;65881;52.438;16.744;2024-03-29T00:32:58;4.75;;;2.95;;
76935;SDS011;65881;52.438;16.744;2024-03-29T00:35:23;3.28;;;2.97;;
76935;SDS011;65881;52.438;16.744;2024-03-29T00:37:49;4.22;;;3.10;;
76935;SDS011;65881;52.438;16.744;2024-03-29T00:40:18;5.13;;;2.40;;
76935;SDS011;65881;52.438;16.744;2024-03-29T00:42:43;4.80;;;2.40;;
76935;SDS011;65881;52.438;16.744;2024-03-29T00:45:09;4.28;;;3.08;;
76935;SDS011;65881;52.438;16.744;2024-03-29T00:47:35;3.15;;;2.58;;
76935;SDS011;65881;52.438;16.744;2024-03-29T00:50:00;5.15;;;2.20;;
76935;SDS011;65881;52.438;16.744;2024-03-29T00:52:26;4.75;;;2.20;;
76935;SDS011;65881;52.438;16.744;2024-03-29T00:54:52;4.50;;;3.10;;
76935;SDS011;65881;52.438;16.744;2024-03-29T00:57:18;5.15;;;3.03;;
76935;SDS011;65881;52.438;16.744;2024-03-29T00:59:44;4.93;;;2.85;;
76935;SDS011;65881;52.438;16.744;2024-03-29T01:02:10;3.38;;;2.35;;
76935;SDS011;65881;52.438;16.744;2024-03-29T01:04:35;4.18;;;2.45;;
76935;SDS011;65881;52.438;16.744;2024-03-29T01:07:03;4.57;;;2.70;;
76935;SDS011;65881;52.438;16.744;2024-03-29T01:09:28;4.57;;;2.85;;
76935;SDS011;65881;52.438;16.744;2024-03-29T01:11:54;4.28;;;2.28;;
76935;SDS011;65881;52.438;16.744;2024-03-29T01:14:20;4.00;;;2.95;;
76935;SDS011;65881;52.438;16.744;2024-03-29T01:16:46;3.47;;;2.65;;
76935;SDS011;65881;52.438;16.744;2024-03-29T01:19:12;6.63;;;3.50;;
76935;SDS011;65881;52.438;16.744;2024-03-29T01:21:37;2.95;;;2.60;;
76935;SDS011;65881;52.438;16.744;2024-03-29T01:24:03;4.57;;;2.42;;
76935;SDS011;65881;52.438;16.744;2024-03-29T01:26:29;4.10;;;3.05;;
76935;SDS011;65881;52.438;16.744;2024-03-29T01:28:55;2.30;;;1.95;;
76935;SDS011;65881;52.438;16.744;2024-03-29T01:31:24;4.07;;;2.83;;
76935;SDS011;65881;52.438;16.744;2024-03-29T01:33:50;2.72;;;2.30;;
76935;SDS011;65881;52.438;16.744;2024-03-29T01:36:16;3.05;;;2.25;;
76935;SDS011;65881;52.438;16.744;2024-03-29T01:38:42;3.38;;;2.40;;
76935;SDS011;65881;52.438;16.744;2024-03-29T01:41:10;3.33;;;2.47;;
76935;SDS011;65881;52.438;16.744;2024-03-29T01:43:37;3.85;;;2.65;;
76935;SDS011;65881;52.438;16.744;2024-03-29T01:46:03;3.55;;;2.63;;
76935;SDS011;65881;52.438;16.744;2024-03-29T01:48:33;3.17;;;2.13;;
76935;SDS011;65881;52.438;16.744;2024-03-29T01:50:59;2.83;;;1.90;;
76935;SDS011;65881;52.438;16.744;2024-03-29T01:53:26;3.33;;;2.10;;
76935;SDS011;65881;52.438;16.744;2024-03-29T01:55:52;3.05;;;2.40;;
76935;SDS011;65881;52.438;16.744;2024-03-29T01:58:19;3.45;;;2.40;;
76935;SDS011;65881;52.438;16.744;2024-03-29T02:00:53;3.58;;;2.40;;
76935;SDS011;65881;52.438;16.744;2024-03-29T02:03:22;2.85;;;2.40;;
76935;SDS011;65881;52.438;16.744;2024-03-29T02:05:49;3.83;;;2.13;;
76935;SDS011;65881;52.438;16.744;2024-03-29T02:08:15;2.97;;;2.30;;
76935;SDS011;65881;52.438;16.744;2024-03-29T02:10:42;3.53;;;2.33;;
76935;SDS011;65881;52.438;16.744;2024-03-29T02:13:08;2.45;;;2.13;;
76935;SDS011;65881;52.438;16.744;2024-03-29T02:15:35;5.72;;;2.75;;
76935;SDS011;65881;52.438;16.744;2024-03-29T02:18:01;1.98;;;1.80;;
76935;SDS011;65881;52.438;16.744;2024-03-29T02:20:27;2.63;;;1.90;;
76935;SDS011;65881;52.438;16.744;2024-03-29T02:23:02;2.65;;;2.10;;
76935;SDS011;65881;52.438;16.744;2024-03-29T02:25:31;1.83;;;1.42;;
76935;SDS011;65881;52.438;16.744;2024-03-29T02:28:00;3.03;;;1.80;;
76935;SDS011;65881;52.438;16.744;2024-03-29T02:32:55;2.90;;;1.92;;
76935;SDS011;65881;52.438;16.744;2024-03-29T02:35:25;1.92;;;1.60;;
76935;SDS011;65881;52.438;16.744;2024-03-29T02:37:51;2.90;;;2.00;;
76935;SDS011;65881;52.438;16.744;2024-03-29T02:40:17;2.30;;;1.65;;
76935;SDS011;65881;52.438;16.744;2024-03-29T02:42:47;2.75;;;2.42;;
76935;SDS011;65881;52.438;16.744;2024-03-29T02:45:14;2.38;;;1.65;;
76935;SDS011;65881;52.438;16.744;2024-03-29T02:47:40;2.63;;;1.70;;
76935;SDS011;65881;52.438;16.744;2024-03-29T02:50:06;1.83;;;1.23;;
76935;SDS011;65881;52.438;16.744;2024-03-29T02:52:34;1.48;;;1.20;;
76935;SDS011;65881;52.438;16.744;2024-03-29T02:54:59;3.80;;;1.75;;
76935;SDS011;65881;52.438;16.744;2024-03-29T02:57:25;2.22;;;1.40;;
76935;SDS011;65881;52.438;16.744;2024-03-29T02:59:51;1.60;;;1.50;;
76935;SDS011;65881;52.438;16.744;2024-03-29T03:02:16;2.13;;;1.50;;
76935;SDS011;65881;52.438;16.744;2024-03-29T03:04:42;1.67;;;1.23;;
76935;SDS011;65881;52.438;16.744;2024-03-29T03:07:08;2.13;;;1.52;;
76935;SDS011;65881;52.438;16.744;2024-03-29T03:09:52;3.58;;;1.27;;
76935;SDS011;65881;52.438;16.744;2024-03-29T03:12:36;1.52;;;1.40;;
76935;SDS011;65881;52.438;16.744;2024-03-29T03:15:02;1.60;;;1.20;;
76935;SDS011;65881;52.438;16.744;2024-03-29T03:17:29;1.73;;;1.40;;
76935;SDS011;65881;52.438;16.744;2024-03-29T03:19:56;4.28;;;1.70;;
76935;SDS011;65881;52.438;16.744;2024-03-29T03:22:22;1.38;;;1.23;;
76935;SDS011;65881;52.438;16.744;2024-03-29T03:24:49;2.40;;;1.70;;
76935;SDS011;65881;52.438;16.744;2024-03-29T03:27:15;2.70;;;1.60;;
76935;SDS011;65881;52.438;16.744;2024-03-29T03:29:41;3.05;;;1.90;;
76935;SDS011;65881;52.438;16.744;2024-03-29T03:32:07;2.80;;;2.03;;
76935;SDS011;65881;52.438;16.744;2024-03-29T03:34:35;3.35;;;2.03;;
76935;SDS011;65881;52.438;16.744;2024-03-29T03:37:11;2.85;;;2.15;;
76935;SDS011;65881;52.438;16.744;2024-03-29T03:39:37;3.17;;;1.63;;
76935;SDS011;65881;52.438;16.744;2024-03-29T03:42:04;2.25;;;1.80;;
76935;SDS011;65881;52.438;16.744;2024-03-29T03:44:30;2.22;;;1.80;;
76935;SDS011;65881;52.438;16.744;2024-03-29T03:46:55;6.78;;;2.00;;
76935;SDS011;65881;52.438;16.744;2024-03-29T03:49:21;3.58;;;2.40;;
76935;SDS011;65881;52.438;16.744;2024-03-29T03:51:47;3.05;;;2.33;;
76935;SDS011;65881;52.438;16.744;2024-03-29T03:54:13;5.80;;;2.53;;
76935;SDS011;65881;52.438;16.744;2024-03-29T03:56:38;4.53;;;3.13;;
76935;SDS011;65881;52.438;16.744;2024-03-29T03:59:04;3.63;;;2.88;;
76935;SDS011;65881;52.438;16.744;2024-03-29T04:01:30;3.92;;;3.13;;
76935;SDS011;65881;52.438;16.744;2024-03-29T04:03:55;5.18;;;3.30;;
76935;SDS011;65881;52.438;16.744;2024-03-29T04:06:21;4.63;;;3.13;;
76935;SDS011;65881;52.438;16.744;2024-03-29T04:08:47;3.80;;;2.58;;
76935;SDS011;65881;52.438;16.744;2024-03-29T04:11:12;5.05;;;3.22;;
76935;SDS011;65881;52.438;16.744;2024-03-29T04:13:38;4.57;;;3.28;;
76935;SDS011;65881;52.438;16.744;2024-03-29T04:16:07;4.28;;;2.40;;
76935;SDS011;65881;52.438;16.744;2024-03-29T04:18:33;3.80;;;2.42;;
76935;SDS011;65881;52.438;16.744;2024-03-29T04:20:59;6.32;;;3.17;;
76935;SDS011;65881;52.438;16.744;2024-03-29T04:23:26;3.30;;;2.40;;
76935;SDS011;65881;52.438;16.744;2024-03-29T04:25:55;3.90;;;2.75;;
76935;SDS011;65881;52.438;16.744;2024-03-29T04:28:21;3.65;;;2.30;;
76935;SDS011;65881;52.438;16.744;2024-03-29T04:30:54;7.75;;;3.00;;
76935;SDS011;65881;52.438;16.744;2024-03-29T04:33:21;3.72;;;2.80;;
76935;SDS011;65881;52.438;16.744;2024-03-29T04:35:54;3.65;;;2.83;;
76935;SDS011;65881;52.438;16.744;2024-03-29T04:38:20;3.03;;;2.72;;
76935;SDS011;65881;52.438;16.744;2024-03-29T04:40:48;4.13;;;2.90;;
76935;SDS011;65881;52.438;16.744;2024-03-29T04:43:14;4.93;;;3.30;;
76935;SDS011;65881;52.438;16.744;2024-03-29T04:45:40;4.03;;;3.25;;
76935;SDS011;65881;52.438;16.744;2024-03-29T04:48:06;4.40;;;3.40;;
76935;SDS011;65881;52.438;16.744;2024-03-29T04:50:32;5.55;;;3.40;;
76935;SDS011;65881;52.438;16.744;2024-03-29T04:52:57;4.72;;;2.72;;
76935;SDS011;65881;52.438;16.744;2024-03-29T04:55:23;4.13;;;3.10;;
76935;SDS011;65881;52.438;16.744;2024-03-29T04:57:49;6.25;;;3.03;;
76935;SDS011;65881;52.438;16.744;2024-03-29T05:00:15;6.82;;;3.28;;
76935;SDS011;65881;52.438;16.744;2024-03-29T05:02:40;4.60;;;3.88;;
76935;SDS011;65881;52.438;16.744;2024-03-29T05:05:06;4.35;;;3.17;;
76935;SDS011;65881;52.438;16.744;2024-03-29T05:07:32;8.27;;;3.63;;
76935;SDS011;65881;52.438;16.744;2024-03-29T05:09:57;3.55;;;2.72;;
76935;SDS011;65881;52.438;16.744;2024-03-29T05:12:24;5.88;;;3.20;;
76935;SDS011;65881;52.438;16.744;2024-03-29T05:14:50;4.95;;;3.50;;
76935;SDS011;65881;52.438;16.744;2024-03-29T05:17:15;5.80;;;2.92;;
76935;SDS011;65881;52.438;16.744;2024-03-29T05:19:42;3.90;;;2.78;;
76935;SDS011;65881;52.438;16.744;2024-03-29T05:22:08;4.70;;;3.10;;
76935;SDS011;65881;52.438;16.744;2024-03-29T05:24:34;3.42;;;2.88;;
76935;SDS011;65881;52.438;16.744;2024-03-29T05:27:00;4.10;;;3.22;;
76935;SDS011;65881;52.438;16.744;2024-03-29T05:29:25;5.00;;;3.00;;
76935;SDS011;65881;52.438;16.744;2024-03-29T05:31:54;5.50;;;3.28;;
76935;SDS011;65881;52.438;16.744;2024-03-29T05:34:19;3.80;;;3.10;;
76935;SDS011;65881;52.438;16.744;2024-03-29T05:36:45;4.18;;;3.00;;
76935;SDS011;65881;52.438;16.744;2024-03-29T05:39:11;4.03;;;3.33;;
76935;SDS011;65881;52.438;16.744;2024-03-29T05:41:37;4.22;;;3.22;;
76935;SDS011;65881;52.438;16.744;2024-03-29T05:44:03;5.63;;;2.80;;
76935;SDS011;65881;52.438;16.744;2024-03-29T05:46:31;6.50;;;3.15;;
76935;SDS011;65881;52.438;16.744;2024-03-29T05:48:57;4.43;;;3.45;;
76935;SDS011;65881;52.438;16.744;2024-03-29T05:51:23;6.80;;;4.82;;
76935;SDS011;65881;52.438;16.744;2024-03-29T05:53:48;5.32;;;4.00;;
76935;SDS011;65881;52.438;16.744;2024-03-29T05:56:14;4.70;;;3.97;;
76935;SDS011;65881;52.438;16.744;2024-03-29T05:58:40;5.65;;;3.80;;
76935;SDS011;65881;52.438;16.744;2024-03-29T06:01:07;5.93;;;3.15;;
76935;SDS011;65881;52.438;16.744;2024-03-29T06:03:34;3.92;;;3.13;;
76935;SDS011;65881;52.438;16.744;2024-03-29T06:06:00;5.13;;;3.33;;
76935;SDS011;65881;52.438;16.744;2024-03-29T06:08:26;6.38;;;2.88;;
76935;SDS011;65881;52.438;16.744;2024-03-29T06:10:52;4.07;;;2.97;;
76935;SDS011;65881;52.438;16.744;2024-03-29T06:13:18;4.78;;;2.92;;
76935;SDS011;65881;52.438;16.744;2024-03-29T06:16:12;5.43;;;3.70;;
76935;SDS011;65881;52.438;16.744;2024-03-29T06:18:56;5.45;;;3.85;;
76935;SDS011;65881;52.438;16.744;2024-03-29T06:21:22;4.10;;;2.80;;
76935;SDS011;65881;52.438;16.744;2024-03-29T06:23:48;5.05;;;3.30;;
76935;SDS011;65881;52.438;16.744;2024-03-29T06:26:14;6.10;;;3.42;;
76935;SDS011;65881;52.438;16.744;2024-03-29T06:28:39;6.30;;;3.15;;
76935;SDS011;65881;52.438;16.744;2024-03-29T06:31:05;8.55;;;3.60;;
76935;SDS011;65881;52.438;16.744;2024-03-29T06:33:31;4.78;;;3.05;;
76935;SDS011;65881;52.438;16.744;2024-03-29T06:35:56;5.50;;;3.10;;
76935;SDS011;65881;52.438;16.744;2024-03-29T06:38:22;9.05;;;5.38;;
76935;SDS011;65881;52.438;16.744;2024-03-29T06:40:48;6.40;;;5.22;;
76935;SDS011;65881;52.438;16.744;2024-03-29T06:43:13;10.15;;;7.30;;
76935;SDS011;65881;52.438;16.744;2024-03-29T06:45:40;7.90;;;5.63;;
76935;SDS011;65881;52.438;16.744;2024-03-29T06:48:08;4.82;;;3.45;;
76935;SDS011;65881;52.438;16.744;2024-03-29T06:50:34;4.90;;;3.05;;
76935;SDS011;65881;52.438;16.744;2024-03-29T06:53:02;5.28;;;3.17;;
76935;SDS011;65881;52.438;16.744;2024-03-29T06:55:27;6.53;;;3.35;;
76935;SDS011;65881;52.438;16.744;2024-03-29T06:57:53;4.03;;;2.72;;
76935;SDS011;65881;52.438;16.744;2024-03-29T07:00:19;3.70;;;2.70;;
76935;SDS011;65881;52.438;16.744;2024-03-29T07:02:44;7.10;;;3.60;;
76935;SDS011;65881;52.438;16.744;2024-03-29T07:05:10;5.00;;;3.10;;
76935;SDS011;65881;52.438;16.744;2024-03-29T07:07:37;4.00;;;2.60;;
76935;SDS011;65881;52.438;16.744;2024-03-29T07:10:03;3.67;;;2.53;;
76935;SDS011;65881;52.438;16.744;2024-03-29T07:12:32;3.92;;;3.20;;
76935;SDS011;65881;52.438;16.744;2024-03-29T07:14:57;4.88;;;2.90;;
76935;SDS011;65881;52.438;16.744;2024-03-29T07:17:24;5.75;;;3.13;;
76935;SDS011;65881;52.438;16.744;2024-03-29T07:19:50;7.68;;;4.75;;
76935;SDS011;65881;52.438;16.744;2024-03-29T07:22:15;5.28;;;2.78;;
76935;SDS011;65881;52.438;16.744;2024-03-29T07:24:41;4.20;;;3.17;;
76935;SDS011;65881;52.438;16.744;2024-03-29T07:27:07;4.20;;;2.80;;
76935;SDS011;65881;52.438;16.744;2024-03-29T07:29:33;2.55;;;2.22;;
76935;SDS011;65881;52.438;16.744;2024-03-29T07:32:00;5.38;;;2.90;;
76935;SDS011;65881;52.438;16.744;2024-03-29T07:34:26;3.58;;;2.70;;
76935;SDS011;65881;52.438;16.744;2024-03-29T07:36:52;6.10;;;2.88;;
76935;SDS011;65881;52.438;16.744;2024-03-29T07:39:18;4.00;;;2.53;;
76935;SDS011;65881;52.438;16.744;2024-03-29T07:41:45;4.07;;;2.67;;
76935;SDS011;65881;52.438;16.744;2024-03-29T07:44:11;4.15;;;2.60;;
76935;SDS011;65881;52.438;16.744;2024-03-29T07:46:37;4.88;;;2.90;;
76935;SDS011;65881;52.438;16.744;2024-03-29T07:49:04;8.85;;;3.58;;
76935;SDS011;65881;52.438;16.744;2024-03-29T07:51:30;4.22;;;3.00;;
76935;SDS011;65881;52.438;16.744;2024-03-29T07:53:56;7.38;;;2.95;;
76935;SDS011;65881;52.438;16.744;2024-03-29T07:56:22;4.40;;;3.00;;
76935;SDS011;65881;52.438;16.744;2024-03-29T07:58:52;4.72;;;3.13;;
76935;SDS011;65881;52.438;16.744;2024-03-29T08:01:21;6.75;;;2.75;;
76935;SDS011;65881;52.438;16.744;2024-03-29T08:03:52;3.85;;;2.80;;
76935;SDS011;65881;52.438;16.744;2024-03-29T08:06:20;4.68;;;3.35;;
76935;SDS011;65881;52.438;16.744;2024-03-29T08:08:48;4.65;;;3.03;;
76935;SDS011;65881;52.438;16.744;2024-03-29T08:11:14;3.58;;;2.97;;
76935;SDS011;65881;52.438;16.744;2024-03-29T08:13:40;7.15;;;2.83;;
76935;SDS011;65881;52.438;16.744;2024-03-29T08:16:06;4.47;;;2.60;;
76935;SDS011;65881;52.438;16.744;2024-03-29T08:18:33;4.65;;;2.67;;
76935;SDS011;65881;52.438;16.744;2024-03-29T08:20:58;7.03;;;4.03;;
76935;SDS011;65881;52.438;16.744;2024-03-29T08:23:24;5.60;;;2.30;;
76935;SDS011;65881;52.438;16.744;2024-03-29T08:25:51;3.30;;;2.67;;
76935;SDS011;65881;52.438;16.744;2024-03-29T08:28:19;4.78;;;2.97;;
76935;SDS011;65881;52.438;16.744;2024-03-29T08:30:45;3.92;;;2.80;;
76935;SDS011;65881;52.438;16.744;2024-03-29T08:33:11;3.15;;;2.42;;
76935;SDS011;65881;52.438;16.744;2024-03-29T08:35:37;5.82;;;2.72;;
76935;SDS011;65881;52.438;16.744;2024-03-29T08:38:10;4.10;;;2.53;;
76935;SDS011;65881;52.438;16.744;2024-03-29T08:40:39;3.50;;;2.30;;
76935;SDS011;65881;52.438;16.744;2024-03-29T08:43:08;3.67;;;2.58;;
76935;SDS011;65881;52.438;16.744;2024-03-29T08:45:35;4.57;;;2.53;;
76935;SDS011;65881;52.438;16.744;2024-03-29T08:48:05;4.35;;;3.50;;
76935;SDS011;65881;52.438;16.744;2024-03-29T08:50:33;5.95;;;2.25;;
76935;SDS011;65881;52.438;16.744;2024-03-29T08:52:59;2.55;;;1.90;;
76935;SDS011;65881;52.438;16.744;2024-03-29T08:55:25;6.25;;;2.80;;
76935;SDS011;65881;52.438;16.744;2024-03-29T08:57:51;3.83;;;2.28;;
76935;SDS011;65881;52.438;16.744;2024-03-29T09:00:16;4.55;;;2.17;;
76935;SDS011;65881;52.438;16.744;2024-03-29T09:02:42;2.67;;;2.20;;
76935;SDS011;65881;52.438;16.744;2024-03-29T09:05:08;5.22;;;2.47;;
76935;SDS011;65881;52.438;16.744;2024-03-29T09:07:35;7.90;;;2.35;;
76935;SDS011;65881;52.438;16.744;2024-03-29T09:10:02;4.22;;;2.38;;
76935;SDS011;65881;52.438;16.744;2024-03-29T09:12:29;2.97;;;1.90;;
76935;SDS011;65881;52.438;16.744;2024-03-29T09:14:55;3.58;;;1.90;;
76935;SDS011;65881;52.438;16.744;2024-03-29T09:17:22;5.43;;;2.33;;
76935;SDS011;65881;52.438;16.744;2024-03-29T09:19:50;2.30;;;1.70;;
76935;SDS011;65881;52.438;16.744;2024-03-29T09:22:20;4.20;;;2.45;;
76935;SDS011;65881;52.438;16.744;2024-03-29T09:24:46;4.88;;;3.28;;
76935;SDS011;65881;52.438;16.744;2024-03-29T09:27:13;2.40;;;1.70;;
76935;SDS011;65881;52.438;16.744;2024-03-29T09:29:39;4.38;;;2.00;;
76935;SDS011;65881;52.438;16.744;2024-03-29T09:32:04;3.70;;;2.05;;
76935;SDS011;65881;52.438;16.744;2024-03-29T09:34:30;3.47;;;1.73;;
76935;SDS011;65881;52.438;16.744;2024-03-29T09:36:56;2.70;;;1.70;;
76935;SDS011;65881;52.438;16.744;2024-03-29T09:39:22;3.55;;;1.88;;
76935;SDS011;65881;52.438;16.744;2024-03-29T09:41:48;4.07;;;2.10;;
76935;SDS011;65881;52.438;16.744;2024-03-29T09:44:15;6.95;;;2.83;;
76935;SDS011;65881;52.438;16.744;2024-03-29T09:46:42;3.72;;;2.58;;
76935;SDS011;65881;52.438;16.744;2024-03-29T09:49:08;2.25;;;1.50;;
76935;SDS011;65881;52.438;16.744;2024-03-29T09:51:37;2.35;;;1.70;;
76935;SDS011;65881;52.438;16.744;2024-03-29T09:54:04;4.85;;;2.03;;
76935;SDS011;65881;52.438;16.744;2024-03-29T09:56:33;4.13;;;1.90;;
76935;SDS011;65881;52.438;16.744;2024-03-29T09:58:59;7.13;;;2.25;;
76935;SDS011;65881;52.438;16.744;2024-03-29T10:01:26;3.88;;;1.70;;
76935;SDS011;65881;52.438;16.744;2024-03-29T10:03:53;3.42;;;2.20;;
76935;SDS011;65881;52.438;16.744;2024-03-29T10:06:19;4.28;;;1.95;;
76935;SDS011;65881;52.438;16.744;2024-03-29T10:08:49;3.38;;;1.70;;
76935;SDS011;65881;52.438;16.744;2024-03-29T10:11:19;4.95;;;2.28;;
76935;SDS011;65881;52.438;16.744;2024-03-29T10:13:46;2.45;;;1.70;;
76935;SDS011;65881;52.438;16.744;2024-03-29T10:16:12;2.55;;;1.80;;
76935;SDS011;65881;52.438;16.744;2024-03-29T10:18:40;4.00;;;2.10;;
76935;SDS011;65881;52.438;16.744;2024-03-29T10:21:08;2.42;;;1.58;;
76935;SDS011;65881;52.438;16.744;2024-03-29T10:23:34;3.75;;;1.95;;
76935;SDS011;65881;52.438;16.744;2024-03-29T10:26:04;3.30;;;1.60;;
76935;SDS011;65881;52.438;16.744;2024-03-29T10:28:31;2.80;;;1.70;;
76935;SDS011;65881;52.438;16.744;2024-03-29T10:31:02;3.67;;;1.48;;
76935;SDS011;65881;52.438;16.744;2024-03-29T10:33:29;2.25;;;1.63;;
76935;SDS011;65881;52.438;16.744;2024-03-29T10:35:57;5.70;;;2.10;;
76935;SDS011;65881;52.438;16.744;2024-03-29T10:38:29;2.88;;;2.00;;
76935;SDS011;65881;52.438;16.744;2024-03-29T10:40:56;5.32;;;1.70;;
76935;SDS011;65881;52.438;16.744;2024-03-29T10:43:22;3.67;;;2.33;;
76935;SDS011;65881;52.438;16.744;2024-03-29T10:45:50;4.13;;;1.83;;
76935;SDS011;65881;52.438;16.744;2024-03-29T10:48:19;3.78;;;1.83;;
76935;SDS011;65881;52.438;16.744;2024-03-29T10:50:46;4.07;;;1.77;;
76935;SDS011;65881;52.438;16.744;2024-03-29T10:53:16;2.28;;;1.73;;
76935;SDS011;65881;52.438;16.744;2024-03-29T10:55:42;2.80;;;1.73;;
76935;SDS011;65881;52.438;16.744;2024-03-29T10:58:10;4.13;;;2.83;;
76935;SDS011;65881;52.438;16.744;2024-03-29T11:00:45;4.50;;;2.40;;
76935;SDS011;65881;52.438;16.744;2024-03-29T11:05:49;4.65;;;2.33;;
76935;SDS011;65881;52.438;16.744;2024-03-29T11:08:22;3.42;;;2.00;;
76935;SDS011;65881;52.438;16.744;2024-03-29T11:10:53;2.22;;;1.60;;
76935;SDS011;65881;52.438;16.744;2024-03-29T11:13:42;2.90;;;2.08;;
76935;SDS011;65881;52.438;16.744;2024-03-29T11:16:12;2.90;;;1.80;;
76935;SDS011;65881;52.438;16.744;2024-03-29T11:18:41;3.28;;;1.88;;
76935;SDS011;65881;52.438;16.744;2024-03-29T11:21:07;2.90;;;1.80;;
76935;SDS011;65881;52.438;16.744;2024-03-29T11:23:36;4.95;;;1.85;;
76935;SDS011;65881;52.438;16.744;2024-03-29T11:26:01;3.13;;;2.10;;
76935;SDS011;65881;52.438;16.744;2024-03-29T11:28:34;4.38;;;1.75;;
76935;SDS011;65881;52.438;16.744;2024-03-29T11:31:09;4.78;;;1.83;;
76935;SDS011;65881;52.438;16.744;2024-03-29T11:38:42;2.55;;;1.40;;
76935;SDS011;65881;52.438;16.744;2024-03-29T11:41:10;4.07;;;1.77;;
76935;SDS011;65881;52.438;16.744;2024-03-29T11:43:43;3.63;;;1.60;;
76935;SDS011;65881;52.438;16.744;2024-03-29T11:46:10;5.88;;;2.15;;
76935;SDS011;65881;52.438;16.744;2024-03-29T11:48:37;9.38;;;2.03;;
76935;SDS011;65881;52.438;16.744;2024-03-29T11:51:07;4.88;;;1.73;;
76935;SDS011;65881;52.438;16.744;2024-03-29T11:53:35;2.80;;;1.63;;
76935;SDS011;65881;52.438;16.744;2024-03-29T11:56:01;3.35;;;2.22;;
76935;SDS011;65881;52.438;16.744;2024-03-29T11:58:29;2.92;;;1.70;;
76935;SDS011;65881;52.438;16.744;2024-03-29T12:00:56;4.53;;;1.92;;
76935;SDS011;65881;52.438;16.744;2024-03-29T12:03:23;3.55;;;2.33;;
76935;SDS011;65881;52.438;16.744;2024-03-29T12:05:51;3.60;;;1.90;;
76935;SDS011;65881;52.438;16.744;2024-03-29T12:08:19;4.22;;;1.48;;
76935;SDS011;65881;52.438;16.744;2024-03-29T12:10:49;3.50;;;1.48;;
76935;SDS011;65881;52.438;16.744;2024-03-29T12:13:15;2.97;;;1.52;;
76935;SDS011;65881;52.438;16.744;2024-03-29T12:15:42;4.75;;;1.50;;
76935;SDS011;65881;52.438;16.744;2024-03-29T12:18:08;5.20;;;1.85;;
76935;SDS011;65881;52.438;16.744;2024-03-29T12:20:40;4.50;;;2.33;;
76935;SDS011;65881;52.438;16.744;2024-03-29T12:23:08;5.32;;;2.00;;
76935;SDS011;65881;52.438;16.744;2024-03-29T12:25:35;2.65;;;1.83;;
76935;SDS011;65881;52.438;16.744;2024-03-29T12:28:03;4.63;;;2.40;;
76935;SDS011;65881;52.438;16.744;2024-03-29T12:30:29;4.00;;;1.90;;
76935;SDS011;65881;52.438;16.744;2024-03-29T12:33:05;5.47;;;1.80;;
76935;SDS011;65881;52.438;16.744;2024-03-29T12:35:32;5.55;;;2.35;;
76935;SDS011;65881;52.438;16.744;2024-03-29T12:37:59;2.03;;;1.60;;
76935;SDS011;65881;52.438;16.744;2024-03-29T12:40:26;3.83;;;2.03;;
76935;SDS011;65881;52.438;16.744;2024-03-29T12:42:54;4.45;;;2.17;;
76935;SDS011;65881;52.438;16.744;2024-03-29T12:45:21;4.18;;;1.63;;
76935;SDS011;65881;52.438;16.744;2024-03-29T12:47:48;2.78;;;1.65;;
76935;SDS011;65881;52.438;16.744;2024-03-29T12:50:19;4.40;;;1.92;;
76935;SDS011;65881;52.438;16.744;2024-03-29T12:52:50;4.78;;;1.80;;
76935;SDS011;65881;52.438;16.744;2024-03-29T12:55:19;7.28;;;1.85;;
76935;SDS011;65881;52.438;16.744;2024-03-29T12:57:47;4.18;;;1.80;;
76935;SDS011;65881;52.438;16.744;2024-03-29T13:00:12;1.95;;;1.30;;
76935;SDS011;65881;52.438;16.744;2024-03-29T13:02:38;5.97;;;1.58;;
76935;SDS011;65881;52.438;16.744;2024-03-29T13:05:04;3.90;;;1.73;;
76935;SDS011;65881;52.438;16.744;2024-03-29T13:07:33;3.58;;;1.67;;
76935;SDS011;65881;52.438;16.744;2024-03-29T13:09:59;2.17;;;1.30;;
76935;SDS011;65881;52.438;16.744;2024-03-29T13:12:28;5.13;;;1.70;;
76935;SDS011;65881;52.438;16.744;2024-03-29T13:14:55;5.38;;;1.65;;
76935;SDS011;65881;52.438;16.744;2024-03-29T13:17:21;2.45;;;1.33;;
76935;SDS011;65881;52.438;16.744;2024-03-29T13:19:47;3.33;;;1.60;;
76935;SDS011;65881;52.438;16.744;2024-03-29T13:22:12;3.05;;;1.92;;
76935;SDS011;65881;52.438;16.744;2024-03-29T13:24:39;4.13;;;1.58;;
76935;SDS011;65881;52.438;16.744;2024-03-29T13:27:05;4.25;;;1.75;;
76935;SDS011;65881;52.438;16.744;2024-03-29T13:29:31;1.90;;;1.27;;
76935;SDS011;65881;52.438;16.744;2024-03-29T13:31:57;4.22;;;1.50;;
76935;SDS011;65881;52.438;16.744;2024-03-29T13:34:22;3.75;;;1.40;;
76935;SDS011;65881;52.438;16.744;2024-03-29T13:36:48;2.05;;;1.42;;
76935;SDS011;65881;52.438;16.744;2024-03-29T13:39:15;2.78;;;1.85;;
76935;SDS011;65881;52.438;16.744;2024-03-29T13:41:41;7.22;;;1.95;;
76935;SDS011;65881;52.438;16.744;2024-03-29T13:44:07;2.95;;;1.80;;
76935;SDS011;65881;52.438;16.744;2024-03-29T13:46:33;3.10;;;1.65;;
76935;SDS011;65881;52.438;16.744;2024-03-29T13:49:02;2.60;;;1.77;;
76935;SDS011;65881;52.438;16.744;2024-03-29T13:51:29;3.08;;;1.30;;
76935;SDS011;65881;52.438;16.744;2024-03-29T13:53:56;6.38;;;1.50;;
76935;SDS011;65881;52.438;16.744;2024-03-29T13:56:21;3.70;;;1.42;;
76935;SDS011;65881;52.438;16.744;2024-03-29T13:58:47;2.97;;;1.77;;
76935;SDS011;65881;52.438;16.744;2024-03-29T14:01:21;4.88;;;1.70;;
76935;SDS011;65881;52.438;16.744;2024-03-29T14:03:48;2.00;;;1.48;;
76935;SDS011;65881;52.438;16.744;2024-03-29T14:06:14;3.58;;;1.70;;
76935;SDS011;65881;52.438;16.744;2024-03-29T14:08:41;3.60;;;1.23;;
76935;SDS011;65881;52.438;16.744;2024-03-29T14:11:07;6.47;;;2.00;;
76935;SDS011;65881;52.438;16.744;2024-03-29T14:13:33;5.55;;;2.20;;
76935;SDS011;65881;52.438;16.744;2024-03-29T14:15:58;7.53;;;1.73;;
76935;SDS011;65881;52.438;16.744;2024-03-29T14:18:25;2.15;;;1.40;;
76935;SDS011;65881;52.438;16.744;2024-03-29T14:20:51;3.67;;;1.23;;
76935;SDS011;65881;52.438;16.744;2024-03-29T14:23:17;3.78;;;1.60;;
76935;SDS011;65881;52.438;16.744;2024-03-29T14:25:48;3.47;;;1.45;;
76935;SDS011;65881;52.438;16.744;2024-03-29T14:28:16;5.30;;;1.98;;
76935;SDS011;65881;52.438;16.744;2024-03-29T14:30:42;4.10;;;1.90;;
76935;SDS011;65881;52.438;16.744;2024-03-29T14:33:07;6.10;;;1.80;;
76935;SDS011;65881;52.438;16.744;2024-03-29T14:38:05;2.03;;;1.15;;
76935;SDS011;65881;52.438;16.744;2024-03-29T14:40:32;3.92;;;1.60;;
76935;SDS011;65881;52.438;16.744;2024-03-29T14:42:59;3.30;;;1.90;;
76935;SDS011;65881;52.438;16.744;2024-03-29T14:45:26;4.50;;;1.60;;